sensor_id;sensor_type;location;lat;lon;timestamp;temperature;humidity
15930;DHT22;8064;51.142;4.780;2023-06-24T00:01:10;19.90;99.90
15930;DHT22;8064;51.142;4.780;2023-06-24T00:03:39;19.80;99.90
15930;DHT22;8064;51.142;4.780;2023-06-24T00:06:04;19.80;99.90
15930;DHT22;8064;51.142;4.780;2023-06-24T00:08:30;19.70;99.90
15930;DHT22;8064;51.142;4.780;2023-06-24T00:11:01;19.60;99.90
15930;DHT22;8064;51.142;4.780;2023-06-24T00:13:28;19.60;99.90
15930;DHT22;8064;51.142;4.780;2023-06-24T00:15:55;19.50;99.90
15930;DHT22;8064;51.142;4.780;2023-06-24T00:18:21;19.50;99.90
15930;DHT22;8064;51.142;4.780;2023-06-24T00:20:50;19.50;99.90
15930;DHT22;8064;51.142;4.780;2023-06-24T00:23:18;19.40;99.90
15930;DHT22;8064;51.142;4.780;2023-06-24T00:25:50;19.40;99.90
15930;DHT22;8064;51.142;4.780;2023-06-24T00:28:16;19.30;99.90
15930;DHT22;8064;51.142;4.780;2023-06-24T00:30:42;19.30;99.90
15930;DHT22;8064;51.142;4.780;2023-06-24T00:33:08;19.20;99.90
15930;DHT22;8064;51.142;4.780;2023-06-24T00:35:36;19.20;99.90
15930;DHT22;8064;51.142;4.780;2023-06-24T00:38:03;19.20;99.90
15930;DHT22;8064;51.142;4.780;2023-06-24T00:40:29;19.10;99.90
15930;DHT22;8064;51.142;4.780;2023-06-24T00:42:55;19.10;99.90
15930;DHT22;8064;51.142;4.780;2023-06-24T00:45:22;19.10;99.90
15930;DHT22;8064;51.142;4.780;2023-06-24T00:47:48;19.00;99.90
15930;DHT22;8064;51.142;4.780;2023-06-24T00:50:15;19.00;99.90
15930;DHT22;8064;51.142;4.780;2023-06-24T00:52:41;19.00;99.90
15930;DHT22;8064;51.142;4.780;2023-06-24T00:55:10;18.90;99.90
15930;DHT22;8064;51.142;4.780;2023-06-24T00:57:39;18.90;99.90
15930;DHT22;8064;51.142;4.780;2023-06-24T01:00:06;18.80;99.90
15930;DHT22;8064;51.142;4.780;2023-06-24T01:02:39;18.80;99.90
15930;DHT22;8064;51.142;4.780;2023-06-24T01:05:07;18.80;99.90
15930;DHT22;8064;51.142;4.780;2023-06-24T01:07:34;18.70;99.90
15930;DHT22;8064;51.142;4.780;2023-06-24T01:10:02;18.70;99.90
15930;DHT22;8064;51.142;4.780;2023-06-24T01:12:31;18.70;99.90
15930;DHT22;8064;51.142;4.780;2023-06-24T01:14:58;18.60;99.90
15930;DHT22;8064;51.142;4.780;2023-06-24T01:17:31;18.60;99.90
15930;DHT22;8064;51.142;4.780;2023-06-24T01:23:17;18.60;99.90
15930;DHT22;8064;51.142;4.780;2023-06-24T01:25:52;18.50;99.90
15930;DHT22;8064;51.142;4.780;2023-06-24T01:33:49;18.40;99.90
15930;DHT22;8064;51.142;4.780;2023-06-24T01:36:18;18.40;99.90
15930;DHT22;8064;51.142;4.780;2023-06-24T01:38:51;18.40;99.90
15930;DHT22;8064;51.142;4.780;2023-06-24T01:41:22;18.30;99.90
15930;DHT22;8064;51.142;4.780;2023-06-24T01:43:52;18.30;99.90
15930;DHT22;8064;51.142;4.780;2023-06-24T01:46:22;18.30;99.90
15930;DHT22;8064;51.142;4.780;2023-06-24T01:48:50;18.20;99.90
15930;DHT22;8064;51.142;4.780;2023-06-24T01:51:19;18.20;99.90
15930;DHT22;8064;51.142;4.780;2023-06-24T01:54:02;18.20;99.90
15930;DHT22;8064;51.142;4.780;2023-06-24T01:56:29;18.20;99.90
15930;DHT22;8064;51.142;4.780;2023-06-24T01:58:58;18.10;99.90
15930;DHT22;8064;51.142;4.780;2023-06-24T02:01:24;18.10;99.90
15930;DHT22;8064;51.142;4.780;2023-06-24T02:03:52;18.10;99.90
15930;DHT22;8064;51.142;4.780;2023-06-24T02:06:19;18.00;99.90
15930;DHT22;8064;51.142;4.780;2023-06-24T02:08:48;18.00;99.90
15930;DHT22;8064;51.142;4.780;2023-06-24T02:11:15;18.00;99.90
15930;DHT22;8064;51.142;4.780;2023-06-24T02:13:43;17.90;99.90
15930;DHT22;8064;51.142;4.780;2023-06-24T02:16:10;17.90;99.90
15930;DHT22;8064;51.142;4.780;2023-06-24T02:18:38;17.80;99.90
15930;DHT22;8064;51.142;4.780;2023-06-24T02:21:04;17.80;99.90
15930;DHT22;8064;51.142;4.780;2023-06-24T02:23:31;17.70;99.90
15930;DHT22;8064;51.142;4.780;2023-06-24T02:25:57;17.70;99.90
15930;DHT22;8064;51.142;4.780;2023-06-24T02:28:23;17.70;99.90
15930;DHT22;8064;51.142;4.780;2023-06-24T02:30:50;17.60;99.90
15930;DHT22;8064;51.142;4.780;2023-06-24T02:33:17;17.60;99.90
15930;DHT22;8064;51.142;4.780;2023-06-24T02:35:43;17.60;99.90
15930;DHT22;8064;51.142;4.780;2023-06-24T02:38:11;17.50;99.90
15930;DHT22;8064;51.142;4.780;2023-06-24T02:40:36;17.50;99.90
15930;DHT22;8064;51.142;4.780;2023-06-24T02:43:02;17.40;99.90
15930;DHT22;8064;51.142;4.780;2023-06-24T02:45:28;17.40;99.90
15930;DHT22;8064;51.142;4.780;2023-06-24T02:47:56;17.40;99.90
15930;DHT22;8064;51.142;4.780;2023-06-24T02:50:23;17.30;99.90
15930;DHT22;8064;51.142;4.780;2023-06-24T02:52:50;17.30;99.90
15930;DHT22;8064;51.142;4.780;2023-06-24T02:55:17;17.30;99.90
15930;DHT22;8064;51.142;4.780;2023-06-24T02:57:43;17.30;99.90
15930;DHT22;8064;51.142;4.780;2023-06-24T03:00:10;17.30;99.90
15930;DHT22;8064;51.142;4.780;2023-06-24T03:02:39;17.20;99.90
15930;DHT22;8064;51.142;4.780;2023-06-24T03:05:06;17.20;99.90
15930;DHT22;8064;51.142;4.780;2023-06-24T03:07:33;17.20;99.90
15930;DHT22;8064;51.142;4.780;2023-06-24T03:10:02;17.10;99.90
15930;DHT22;8064;51.142;4.780;2023-06-24T03:12:29;17.10;99.90
15930;DHT22;8064;51.142;4.780;2023-06-24T03:14:54;17.10;99.90
15930;DHT22;8064;51.142;4.780;2023-06-24T03:17:20;17.10;99.90
15930;DHT22;8064;51.142;4.780;2023-06-24T03:19:46;17.10;99.90
15930;DHT22;8064;51.142;4.780;2023-06-24T03:22:12;17.00;99.90
15930;DHT22;8064;51.142;4.780;2023-06-24T03:24:38;17.00;99.90
15930;DHT22;8064;51.142;4.780;2023-06-24T03:27:04;17.00;99.90
15930;DHT22;8064;51.142;4.780;2023-06-24T03:29:29;17.00;99.90
15930;DHT22;8064;51.142;4.780;2023-06-24T03:31:55;17.00;99.90
15930;DHT22;8064;51.142;4.780;2023-06-24T03:34:21;17.00;99.90
15930;DHT22;8064;51.142;4.780;2023-06-24T03:36:47;16.90;99.90
15930;DHT22;8064;51.142;4.780;2023-06-24T03:39:12;16.90;99.90
15930;DHT22;8064;51.142;4.780;2023-06-24T03:41:38;16.90;99.90
15930;DHT22;8064;51.142;4.780;2023-06-24T03:44:05;16.90;99.90
15930;DHT22;8064;51.142;4.780;2023-06-24T03:46:30;16.90;99.90
15930;DHT22;8064;51.142;4.780;2023-06-24T03:48:58;16.90;99.90
15930;DHT22;8064;51.142;4.780;2023-06-24T03:51:25;16.90;99.90
15930;DHT22;8064;51.142;4.780;2023-06-24T03:53:50;16.80;99.90
15930;DHT22;8064;51.142;4.780;2023-06-24T03:56:17;16.90;99.90
15930;DHT22;8064;51.142;4.780;2023-06-24T03:58:43;16.90;99.90
15930;DHT22;8064;51.142;4.780;2023-06-24T04:01:09;16.90;99.90
15930;DHT22;8064;51.142;4.780;2023-06-24T04:03:35;16.90;99.90
15930;DHT22;8064;51.142;4.780;2023-06-24T04:06:01;16.90;99.90
15930;DHT22;8064;51.142;4.780;2023-06-24T04:08:27;16.90;99.90
15930;DHT22;8064;51.142;4.780;2023-06-24T04:10:55;16.90;99.90
15930;DHT22;8064;51.142;4.780;2023-06-24T04:13:21;16.90;99.90
15930;DHT22;8064;51.142;4.780;2023-06-24T04:15:47;16.90;99.90
15930;DHT22;8064;51.142;4.780;2023-06-24T04:18:13;16.90;99.90
15930;DHT22;8064;51.142;4.780;2023-06-24T04:20:38;16.90;99.90
15930;DHT22;8064;51.142;4.780;2023-06-24T04:23:05;16.90;99.90
15930;DHT22;8064;51.142;4.780;2023-06-24T04:25:31;17.00;99.90
15930;DHT22;8064;51.142;4.780;2023-06-24T04:27:57;17.00;99.90
15930;DHT22;8064;51.142;4.780;2023-06-24T04:30:23;17.00;99.90
15930;DHT22;8064;51.142;4.780;2023-06-24T04:32:49;17.10;99.90
15930;DHT22;8064;51.142;4.780;2023-06-24T04:35:15;17.10;99.90
15930;DHT22;8064;51.142;4.780;2023-06-24T04:37:40;17.20;99.90
15930;DHT22;8064;51.142;4.780;2023-06-24T04:40:06;17.30;99.90
15930;DHT22;8064;51.142;4.780;2023-06-24T04:42:32;17.30;99.90
15930;DHT22;8064;51.142;4.780;2023-06-24T04:44:58;17.40;99.90
15930;DHT22;8064;51.142;4.780;2023-06-24T04:47:24;17.40;99.90
15930;DHT22;8064;51.142;4.780;2023-06-24T04:49:50;17.50;99.90
15930;DHT22;8064;51.142;4.780;2023-06-24T04:52:15;17.50;99.90
15930;DHT22;8064;51.142;4.780;2023-06-24T04:54:41;17.60;99.90
15930;DHT22;8064;51.142;4.780;2023-06-24T04:57:09;17.70;99.90
15930;DHT22;8064;51.142;4.780;2023-06-24T04:59:48;17.70;99.90
15930;DHT22;8064;51.142;4.780;2023-06-24T05:02:13;17.80;99.90
15930;DHT22;8064;51.142;4.780;2023-06-24T05:04:39;17.90;99.90
15930;DHT22;8064;51.142;4.780;2023-06-24T05:07:05;18.00;99.90
15930;DHT22;8064;51.142;4.780;2023-06-24T05:09:30;18.00;99.90
15930;DHT22;8064;51.142;4.780;2023-06-24T05:11:56;18.10;99.90
15930;DHT22;8064;51.142;4.780;2023-06-24T05:14:22;18.20;99.90
15930;DHT22;8064;51.142;4.780;2023-06-24T05:16:48;18.30;99.90
15930;DHT22;8064;51.142;4.780;2023-06-24T05:19:13;18.30;99.90
15930;DHT22;8064;51.142;4.780;2023-06-24T05:21:39;18.40;99.90
15930;DHT22;8064;51.142;4.780;2023-06-24T05:24:05;18.50;99.90
15930;DHT22;8064;51.142;4.780;2023-06-24T05:26:31;18.60;99.90
15930;DHT22;8064;51.142;4.780;2023-06-24T05:28:57;18.60;99.90
15930;DHT22;8064;51.142;4.780;2023-06-24T05:31:22;18.70;99.90
15930;DHT22;8064;51.142;4.780;2023-06-24T05:33:48;18.80;99.90
15930;DHT22;8064;51.142;4.780;2023-06-24T05:36:14;18.90;99.90
15930;DHT22;8064;51.142;4.780;2023-06-24T05:38:40;19.00;99.90
15930;DHT22;8064;51.142;4.780;2023-06-24T05:41:05;19.00;99.90
15930;DHT22;8064;51.142;4.780;2023-06-24T05:43:31;19.10;99.90
15930;DHT22;8064;51.142;4.780;2023-06-24T05:45:57;19.20;99.90
15930;DHT22;8064;51.142;4.780;2023-06-24T05:48:23;19.30;99.90
15930;DHT22;8064;51.142;4.780;2023-06-24T05:50:48;19.40;99.90
15930;DHT22;8064;51.142;4.780;2023-06-24T05:53:14;19.40;99.90
15930;DHT22;8064;51.142;4.780;2023-06-24T05:55:40;19.50;99.90
15930;DHT22;8064;51.142;4.780;2023-06-24T05:58:06;19.60;99.90
15930;DHT22;8064;51.142;4.780;2023-06-24T06:00:31;19.70;99.90
15930;DHT22;8064;51.142;4.780;2023-06-24T06:02:57;19.70;99.90
15930;DHT22;8064;51.142;4.780;2023-06-24T06:05:23;19.80;99.90
15930;DHT22;8064;51.142;4.780;2023-06-24T06:07:48;19.80;99.90
15930;DHT22;8064;51.142;4.780;2023-06-24T06:10:14;20.00;99.90
15930;DHT22;8064;51.142;4.780;2023-06-24T06:12:43;20.00;99.90
15930;DHT22;8064;51.142;4.780;2023-06-24T06:15:09;20.10;99.90
15930;DHT22;8064;51.142;4.780;2023-06-24T06:17:35;20.20;99.90
15930;DHT22;8064;51.142;4.780;2023-06-24T06:20:01;20.30;99.90
15930;DHT22;8064;51.142;4.780;2023-06-24T06:22:27;20.40;99.90
15930;DHT22;8064;51.142;4.780;2023-06-24T06:24:53;20.50;99.90
15930;DHT22;8064;51.142;4.780;2023-06-24T06:27:18;20.60;99.90
15930;DHT22;8064;51.142;4.780;2023-06-24T06:29:44;20.70;99.90
15930;DHT22;8064;51.142;4.780;2023-06-24T06:32:10;20.80;99.90
15930;DHT22;8064;51.142;4.780;2023-06-24T06:34:36;21.00;99.90
15930;DHT22;8064;51.142;4.780;2023-06-24T06:37:02;21.10;99.90
15930;DHT22;8064;51.142;4.780;2023-06-24T06:39:28;21.20;99.90
15930;DHT22;8064;51.142;4.780;2023-06-24T06:41:54;21.40;99.90
15930;DHT22;8064;51.142;4.780;2023-06-24T06:44:19;21.50;99.90
15930;DHT22;8064;51.142;4.780;2023-06-24T06:46:45;21.70;99.90
15930;DHT22;8064;51.142;4.780;2023-06-24T06:49:11;21.80;99.90
15930;DHT22;8064;51.142;4.780;2023-06-24T06:51:36;21.90;99.90
15930;DHT22;8064;51.142;4.780;2023-06-24T06:54:02;22.00;99.90
15930;DHT22;8064;51.142;4.780;2023-06-24T06:56:28;22.10;99.90
15930;DHT22;8064;51.142;4.780;2023-06-24T06:58:54;22.30;99.90
15930;DHT22;8064;51.142;4.780;2023-06-24T07:01:20;22.40;99.80
15930;DHT22;8064;51.142;4.780;2023-06-24T07:03:45;22.50;99.60
15930;DHT22;8064;51.142;4.780;2023-06-24T07:06:11;22.70;99.50
15930;DHT22;8064;51.142;4.780;2023-06-24T07:08:37;22.80;99.40
15930;DHT22;8064;51.142;4.780;2023-06-24T07:11:03;23.00;99.30
15930;DHT22;8064;51.142;4.780;2023-06-24T07:13:28;23.10;98.90
15930;DHT22;8064;51.142;4.780;2023-06-24T07:15:54;23.20;98.60
15930;DHT22;8064;51.142;4.780;2023-06-24T07:18:20;23.40;98.40
15930;DHT22;8064;51.142;4.780;2023-06-24T07:20:46;23.50;98.10
15930;DHT22;8064;51.142;4.780;2023-06-24T07:23:12;23.60;98.00
15930;DHT22;8064;51.142;4.780;2023-06-24T07:25:37;23.70;97.80
15930;DHT22;8064;51.142;4.780;2023-06-24T07:28:03;23.80;97.50
15930;DHT22;8064;51.142;4.780;2023-06-24T07:30:29;24.00;97.20
15930;DHT22;8064;51.142;4.780;2023-06-24T07:32:55;24.10;97.20
15930;DHT22;8064;51.142;4.780;2023-06-24T07:35:21;24.20;97.10
15930;DHT22;8064;51.142;4.780;2023-06-24T07:37:46;24.40;96.90
15930;DHT22;8064;51.142;4.780;2023-06-24T07:40:12;24.50;96.50
15930;DHT22;8064;51.142;4.780;2023-06-24T07:42:38;24.60;96.30
15930;DHT22;8064;51.142;4.780;2023-06-24T07:45:04;24.70;96.30
15930;DHT22;8064;51.142;4.780;2023-06-24T07:47:30;24.80;96.10
15930;DHT22;8064;51.142;4.780;2023-06-24T07:49:57;24.90;96.00
15930;DHT22;8064;51.142;4.780;2023-06-24T07:52:23;25.00;96.10
15930;DHT22;8064;51.142;4.780;2023-06-24T07:54:49;25.10;95.80
15930;DHT22;8064;51.142;4.780;2023-06-24T07:57:14;25.20;95.30
15930;DHT22;8064;51.142;4.780;2023-06-24T07:59:40;25.30;95.20
15930;DHT22;8064;51.142;4.780;2023-06-24T08:02:07;25.50;94.90
15930;DHT22;8064;51.142;4.780;2023-06-24T08:04:32;25.60;94.60
15930;DHT22;8064;51.142;4.780;2023-06-24T08:06:58;25.70;94.50
15930;DHT22;8064;51.142;4.780;2023-06-24T08:09:24;25.80;94.30
15930;DHT22;8064;51.142;4.780;2023-06-24T08:11:50;25.90;94.30
15930;DHT22;8064;51.142;4.780;2023-06-24T08:14:15;26.00;94.00
15930;DHT22;8064;51.142;4.780;2023-06-24T08:16:41;26.10;93.60
15930;DHT22;8064;51.142;4.780;2023-06-24T08:19:07;26.20;93.20
15930;DHT22;8064;51.142;4.780;2023-06-24T08:21:33;26.30;92.90
15930;DHT22;8064;51.142;4.780;2023-06-24T08:23:59;26.30;92.70
15930;DHT22;8064;51.142;4.780;2023-06-24T08:26:25;26.40;92.50
15930;DHT22;8064;51.142;4.780;2023-06-24T08:28:51;26.50;92.40
15930;DHT22;8064;51.142;4.780;2023-06-24T08:31:17;26.60;92.00
15930;DHT22;8064;51.142;4.780;2023-06-24T08:33:44;26.70;91.70
15930;DHT22;8064;51.142;4.780;2023-06-24T08:36:11;26.70;91.30
15930;DHT22;8064;51.142;4.780;2023-06-24T08:38:36;26.90;91.00
15930;DHT22;8064;51.142;4.780;2023-06-24T08:41:02;26.90;90.70
15930;DHT22;8064;51.142;4.780;2023-06-24T08:43:28;27.00;90.60
15930;DHT22;8064;51.142;4.780;2023-06-24T08:45:54;27.10;90.50
15930;DHT22;8064;51.142;4.780;2023-06-24T08:48:21;27.20;90.60
15930;DHT22;8064;51.142;4.780;2023-06-24T08:50:51;27.20;90.20
15930;DHT22;8064;51.142;4.780;2023-06-24T08:53:18;27.40;90.00
15930;DHT22;8064;51.142;4.780;2023-06-24T08:55:46;27.50;90.10
15930;DHT22;8064;51.142;4.780;2023-06-24T08:58:13;27.60;89.20
15930;DHT22;8064;51.142;4.780;2023-06-24T09:00:39;27.60;88.70
15930;DHT22;8064;51.142;4.780;2023-06-24T09:03:08;27.70;88.80
15930;DHT22;8064;51.142;4.780;2023-06-24T09:05:34;27.80;88.20
15930;DHT22;8064;51.142;4.780;2023-06-24T09:07:59;27.90;87.90
15930;DHT22;8064;51.142;4.780;2023-06-24T09:10:41;28.10;88.40
15930;DHT22;8064;51.142;4.780;2023-06-24T09:13:07;28.20;88.60
15930;DHT22;8064;51.142;4.780;2023-06-24T09:15:35;28.40;88.70
15930;DHT22;8064;51.142;4.780;2023-06-24T09:18:02;28.50;88.00
15930;DHT22;8064;51.142;4.780;2023-06-24T09:20:29;28.60;88.40
15930;DHT22;8064;51.142;4.780;2023-06-24T09:23:05;28.70;86.70
15930;DHT22;8064;51.142;4.780;2023-06-24T09:25:31;28.80;85.00
15930;DHT22;8064;51.142;4.780;2023-06-24T09:28:15;28.90;84.90
15930;DHT22;8064;51.142;4.780;2023-06-24T09:30:41;28.90;82.10
15930;DHT22;8064;51.142;4.780;2023-06-24T09:33:11;28.90;81.70
15930;DHT22;8064;51.142;4.780;2023-06-24T09:35:38;29.00;81.40
15930;DHT22;8064;51.142;4.780;2023-06-24T09:38:04;29.10;81.80
15930;DHT22;8064;51.142;4.780;2023-06-24T09:40:34;29.10;81.40
15930;DHT22;8064;51.142;4.780;2023-06-24T09:43:01;29.10;79.60
15930;DHT22;8064;51.142;4.780;2023-06-24T09:45:29;29.20;80.10
15930;DHT22;8064;51.142;4.780;2023-06-24T09:47:55;29.30;78.40
15930;DHT22;8064;51.142;4.780;2023-06-24T09:50:23;29.30;77.80
15930;DHT22;8064;51.142;4.780;2023-06-24T09:52:50;29.30;75.80
15930;DHT22;8064;51.142;4.780;2023-06-24T09:55:18;29.40;75.50
15930;DHT22;8064;51.142;4.780;2023-06-24T09:57:46;29.40;75.30
15930;DHT22;8064;51.142;4.780;2023-06-24T10:00:14;29.40;74.80
15930;DHT22;8064;51.142;4.780;2023-06-24T10:02:42;29.60;74.80
15930;DHT22;8064;51.142;4.780;2023-06-24T10:05:09;29.60;73.90
15930;DHT22;8064;51.142;4.780;2023-06-24T10:07:36;29.70;72.50
15930;DHT22;8064;51.142;4.780;2023-06-24T10:10:03;29.70;71.30
15930;DHT22;8064;51.142;4.780;2023-06-24T10:12:29;29.80;69.90
15930;DHT22;8064;51.142;4.780;2023-06-24T10:14:55;29.90;69.10
15930;DHT22;8064;51.142;4.780;2023-06-24T10:17:21;29.90;70.50
15930;DHT22;8064;51.142;4.780;2023-06-24T10:19:47;30.10;72.60
15930;DHT22;8064;51.142;4.780;2023-06-24T10:22:12;30.20;71.10
15930;DHT22;8064;51.142;4.780;2023-06-24T10:24:40;30.30;70.30
15930;DHT22;8064;51.142;4.780;2023-06-24T10:30:02;30.50;71.20
15930;DHT22;8064;51.142;4.780;2023-06-24T10:32:40;30.60;69.10
15930;DHT22;8064;51.142;4.780;2023-06-24T10:35:22;30.60;65.70
15930;DHT22;8064;51.142;4.780;2023-06-24T10:38:07;30.50;64.50
15930;DHT22;8064;51.142;4.780;2023-06-24T10:40:35;30.50;63.70
15930;DHT22;8064;51.142;4.780;2023-06-24T10:43:25;30.40;63.70
15930;DHT22;8064;51.142;4.780;2023-06-24T10:45:52;30.40;61.90
15930;DHT22;8064;51.142;4.780;2023-06-24T10:48:18;30.40;63.70
15930;DHT22;8064;51.142;4.780;2023-06-24T10:50:46;30.50;64.50
15930;DHT22;8064;51.142;4.780;2023-06-24T10:53:13;30.60;65.80
15930;DHT22;8064;51.142;4.780;2023-06-24T10:55:39;30.70;64.80
15930;DHT22;8064;51.142;4.780;2023-06-24T10:58:23;30.80;65.30
15930;DHT22;8064;51.142;4.780;2023-06-24T11:00:49;30.90;64.10
15930;DHT22;8064;51.142;4.780;2023-06-24T11:03:16;31.00;63.80
15930;DHT22;8064;51.142;4.780;2023-06-24T11:05:46;31.10;64.40
15930;DHT22;8064;51.142;4.780;2023-06-24T11:08:12;31.20;63.60
15930;DHT22;8064;51.142;4.780;2023-06-24T11:10:54;31.20;64.60
15930;DHT22;8064;51.142;4.780;2023-06-24T11:13:20;31.20;63.90
15930;DHT22;8064;51.142;4.780;2023-06-24T11:15:46;31.20;62.40
15930;DHT22;8064;51.142;4.780;2023-06-24T11:18:12;31.10;63.70
15930;DHT22;8064;51.142;4.780;2023-06-24T11:20:38;31.00;63.40
15930;DHT22;8064;51.142;4.780;2023-06-24T11:23:22;31.10;64.40
15930;DHT22;8064;51.142;4.780;2023-06-24T11:25:48;31.10;62.80
15930;DHT22;8064;51.142;4.780;2023-06-24T11:28:31;31.00;61.20
15930;DHT22;8064;51.142;4.780;2023-06-24T11:30:56;30.90;59.20
15930;DHT22;8064;51.142;4.780;2023-06-24T11:33:31;30.80;59.40
15930;DHT22;8064;51.142;4.780;2023-06-24T11:35:57;30.70;59.10
15930;DHT22;8064;51.142;4.780;2023-06-24T11:38:22;30.60;59.70
15930;DHT22;8064;51.142;4.780;2023-06-24T11:40:48;30.50;60.40
15930;DHT22;8064;51.142;4.780;2023-06-24T11:43:14;30.40;59.60
15930;DHT22;8064;51.142;4.780;2023-06-24T11:45:40;30.30;60.60
15930;DHT22;8064;51.142;4.780;2023-06-24T11:48:06;30.20;60.10
15930;DHT22;8064;51.142;4.780;2023-06-24T11:50:35;30.10;61.20
15930;DHT22;8064;51.142;4.780;2023-06-24T11:53:01;30.10;61.20
15930;DHT22;8064;51.142;4.780;2023-06-24T11:55:27;30.00;62.40
15930;DHT22;8064;51.142;4.780;2023-06-24T11:58:04;29.90;60.90
15930;DHT22;8064;51.142;4.780;2023-06-24T12:00:34;29.70;59.90
15930;DHT22;8064;51.142;4.780;2023-06-24T12:03:05;29.60;62.70
15930;DHT22;8064;51.142;4.780;2023-06-24T12:05:32;29.60;63.30
15930;DHT22;8064;51.142;4.780;2023-06-24T12:10:26;29.40;65.10
15930;DHT22;8064;51.142;4.780;2023-06-24T12:12:52;29.30;65.40
15930;DHT22;8064;51.142;4.780;2023-06-24T12:15:18;29.20;65.00
15930;DHT22;8064;51.142;4.780;2023-06-24T12:17:44;29.10;65.30
15930;DHT22;8064;51.142;4.780;2023-06-24T12:20:10;29.00;65.50
15930;DHT22;8064;51.142;4.780;2023-06-24T12:22:36;28.90;63.70
15930;DHT22;8064;51.142;4.780;2023-06-24T12:25:03;28.80;62.30
15930;DHT22;8064;51.142;4.780;2023-06-24T12:27:29;28.70;61.80
15930;DHT22;8064;51.142;4.780;2023-06-24T12:29:54;28.60;61.20
15930;DHT22;8064;51.142;4.780;2023-06-24T12:32:20;28.50;61.70
15930;DHT22;8064;51.142;4.780;2023-06-24T12:34:46;28.50;62.50
15930;DHT22;8064;51.142;4.780;2023-06-24T12:37:12;28.40;61.20
15930;DHT22;8064;51.142;4.780;2023-06-24T12:39:37;28.40;60.20
15930;DHT22;8064;51.142;4.780;2023-06-24T12:42:03;28.40;61.30
15930;DHT22;8064;51.142;4.780;2023-06-24T12:44:31;28.40;62.50
15930;DHT22;8064;51.142;4.780;2023-06-24T12:46:57;28.30;61.90
15930;DHT22;8064;51.142;4.780;2023-06-24T12:49:23;28.30;62.10
15930;DHT22;8064;51.142;4.780;2023-06-24T12:51:48;28.20;62.50
15930;DHT22;8064;51.142;4.780;2023-06-24T12:54:14;28.20;60.70
15930;DHT22;8064;51.142;4.780;2023-06-24T12:56:40;28.10;61.80
15930;DHT22;8064;51.142;4.780;2023-06-24T12:59:06;28.10;61.40
15930;DHT22;8064;51.142;4.780;2023-06-24T13:01:32;28.00;60.10
15930;DHT22;8064;51.142;4.780;2023-06-24T13:03:58;28.00;60.60
15930;DHT22;8064;51.142;4.780;2023-06-24T13:06:24;28.00;61.50
15930;DHT22;8064;51.142;4.780;2023-06-24T13:08:50;28.00;61.60
15930;DHT22;8064;51.142;4.780;2023-06-24T13:11:17;28.00;61.80
15930;DHT22;8064;51.142;4.780;2023-06-24T13:13:43;28.00;62.80
15930;DHT22;8064;51.142;4.780;2023-06-24T13:16:08;28.00;63.60
15930;DHT22;8064;51.142;4.780;2023-06-24T13:18:34;28.00;62.30
15930;DHT22;8064;51.142;4.780;2023-06-24T13:21:00;28.00;61.50
15930;DHT22;8064;51.142;4.780;2023-06-24T13:23:26;27.90;59.80
15930;DHT22;8064;51.142;4.780;2023-06-24T13:25:51;27.90;58.00
15930;DHT22;8064;51.142;4.780;2023-06-24T13:28:17;27.90;58.80
15930;DHT22;8064;51.142;4.780;2023-06-24T13:30:43;27.90;57.60
15930;DHT22;8064;51.142;4.780;2023-06-24T13:33:09;27.90;57.60
15930;DHT22;8064;51.142;4.780;2023-06-24T13:35:34;27.80;57.50
15930;DHT22;8064;51.142;4.780;2023-06-24T13:38:00;27.80;56.90
15930;DHT22;8064;51.142;4.780;2023-06-24T13:40:26;27.80;57.80
15930;DHT22;8064;51.142;4.780;2023-06-24T13:42:52;27.80;58.20
15930;DHT22;8064;51.142;4.780;2023-06-24T13:45:17;27.80;59.00
15930;DHT22;8064;51.142;4.780;2023-06-24T13:47:43;27.80;59.10
15930;DHT22;8064;51.142;4.780;2023-06-24T13:50:10;27.80;58.70
15930;DHT22;8064;51.142;4.780;2023-06-24T13:52:35;27.80;58.50
15930;DHT22;8064;51.142;4.780;2023-06-24T13:55:01;27.80;58.70
15930;DHT22;8064;51.142;4.780;2023-06-24T13:57:27;27.90;57.40
15930;DHT22;8064;51.142;4.780;2023-06-24T13:59:53;27.80;56.60
15930;DHT22;8064;51.142;4.780;2023-06-24T14:02:19;27.80;56.60
15930;DHT22;8064;51.142;4.780;2023-06-24T14:04:45;27.90;57.00
15930;DHT22;8064;51.142;4.780;2023-06-24T14:07:11;27.90;57.00
15930;DHT22;8064;51.142;4.780;2023-06-24T14:09:37;27.90;56.80
15930;DHT22;8064;51.142;4.780;2023-06-24T14:12:04;27.90;56.90
15930;DHT22;8064;51.142;4.780;2023-06-24T14:14:30;27.90;57.00
15930;DHT22;8064;51.142;4.780;2023-06-24T14:16:56;27.90;57.70
15930;DHT22;8064;51.142;4.780;2023-06-24T14:19:22;27.90;56.80
15930;DHT22;8064;51.142;4.780;2023-06-24T14:21:47;27.80;57.40
15930;DHT22;8064;51.142;4.780;2023-06-24T14:24:13;27.80;57.70
15930;DHT22;8064;51.142;4.780;2023-06-24T14:26:39;27.80;57.70
15930;DHT22;8064;51.142;4.780;2023-06-24T14:29:05;27.80;58.50
15930;DHT22;8064;51.142;4.780;2023-06-24T14:31:31;27.80;58.50
15930;DHT22;8064;51.142;4.780;2023-06-24T14:33:56;27.80;58.00
15930;DHT22;8064;51.142;4.780;2023-06-24T14:36:22;27.90;58.50
15930;DHT22;8064;51.142;4.780;2023-06-24T14:38:48;27.80;58.00
15930;DHT22;8064;51.142;4.780;2023-06-24T14:41:14;27.90;58.50
15930;DHT22;8064;51.142;4.780;2023-06-24T14:43:39;27.90;57.40
15930;DHT22;8064;51.142;4.780;2023-06-24T14:46:05;27.90;57.60
15930;DHT22;8064;51.142;4.780;2023-06-24T14:48:31;27.90;56.30
15930;DHT22;8064;51.142;4.780;2023-06-24T14:50:57;27.90;56.90
15930;DHT22;8064;51.142;4.780;2023-06-24T14:53:22;27.90;58.10
15930;DHT22;8064;51.142;4.780;2023-06-24T14:55:48;27.90;57.00
15930;DHT22;8064;51.142;4.780;2023-06-24T14:58:14;27.90;56.10
15930;DHT22;8064;51.142;4.780;2023-06-24T15:00:40;27.90;55.70
15930;DHT22;8064;51.142;4.780;2023-06-24T15:03:05;27.90;55.90
15930;DHT22;8064;51.142;4.780;2023-06-24T15:05:32;28.00;55.40
15930;DHT22;8064;51.142;4.780;2023-06-24T15:07:59;28.00;55.40
15930;DHT22;8064;51.142;4.780;2023-06-24T15:10:25;27.90;55.20
15930;DHT22;8064;51.142;4.780;2023-06-24T15:12:51;27.80;55.60
15930;DHT22;8064;51.142;4.780;2023-06-24T15:15:17;27.80;56.90
15930;DHT22;8064;51.142;4.780;2023-06-24T15:17:43;27.90;57.90
15930;DHT22;8064;51.142;4.780;2023-06-24T15:20:11;27.90;58.30
15930;DHT22;8064;51.142;4.780;2023-06-24T15:22:37;27.90;58.10
15930;DHT22;8064;51.142;4.780;2023-06-24T15:25:04;27.80;57.40
15930;DHT22;8064;51.142;4.780;2023-06-24T15:27:30;27.80;57.10
15930;DHT22;8064;51.142;4.780;2023-06-24T15:29:56;27.90;57.10
15930;DHT22;8064;51.142;4.780;2023-06-24T15:32:21;27.80;57.50
15930;DHT22;8064;51.142;4.780;2023-06-24T15:34:47;27.80;57.70
15930;DHT22;8064;51.142;4.780;2023-06-24T15:37:13;27.80;57.90
15930;DHT22;8064;51.142;4.780;2023-06-24T15:39:40;27.90;57.70
15930;DHT22;8064;51.142;4.780;2023-06-24T15:42:06;27.80;57.70
15930;DHT22;8064;51.142;4.780;2023-06-24T15:44:32;27.80;58.10
15930;DHT22;8064;51.142;4.780;2023-06-24T15:46:57;27.90;59.50
15930;DHT22;8064;51.142;4.780;2023-06-24T15:49:23;27.90;59.80
15930;DHT22;8064;51.142;4.780;2023-06-24T15:51:49;27.90;60.00
15930;DHT22;8064;51.142;4.780;2023-06-24T15:54:15;27.90;60.80
15930;DHT22;8064;51.142;4.780;2023-06-24T15:56:41;27.90;61.70